sensor_id;sensor_type;location;lat;lon;timestamp;P1;durP1;ratioP1;P2;durP2;ratioP2
10651;SDS011;5374;42.742;23.266;2023-03-14T00:00:12;35.43;;;23.00;;
10651;SDS011;5374;42.742;23.266;2023-03-14T00:03:02;33.97;;;21.77;;
10651;SDS011;5374;42.742;23.266;2023-03-14T00:05:49;33.70;;;21.93;;
10651;SDS011;5374;42.742;23.266;2023-03-14T00:08:37;35.77;;;22.53;;
10651;SDS011;5374;42.742;23.266;2023-03-14T00:11:24;33.67;;;22.23;;
10651;SDS011;5374;42.742;23.266;2023-03-14T00:14:11;37.30;;;23.63;;
10651;SDS011;5374;42.742;23.266;2023-03-14T00:17:00;38.60;;;23.07;;
10651;SDS011;5374;42.742;23.266;2023-03-14T00:19:49;64.17;;;33.30;;
10651;SDS011;5374;42.742;23.266;2023-03-14T00:22:39;49.43;;;27.70;;
10651;SDS011;5374;42.742;23.266;2023-03-14T00:25:27;53.47;;;29.23;;
10651;SDS011;5374;42.742;23.266;2023-03-14T00:28:14;54.80;;;31.70;;
10651;SDS011;5374;42.742;23.266;2023-03-14T00:31:02;62.17;;;32.37;;
10651;SDS011;5374;42.742;23.266;2023-03-14T00:33:50;55.13;;;31.00;;
10651;SDS011;5374;42.742;23.266;2023-03-14T00:36:40;51.00;;;28.73;;
10651;SDS011;5374;42.742;23.266;2023-03-14T00:39:27;44.23;;;25.97;;
10651;SDS011;5374;42.742;23.266;2023-03-14T00:42:14;38.43;;;22.17;;
10651;SDS011;5374;42.742;23.266;2023-03-14T00:45:01;40.00;;;21.40;;
10651;SDS011;5374;42.742;23.266;2023-03-14T00:47:49;35.63;;;20.57;;
10651;SDS011;5374;42.742;23.266;2023-03-14T00:50:36;33.87;;;19.40;;
10651;SDS011;5374;42.742;23.266;2023-03-14T00:53:25;38.33;;;21.93;;
10651;SDS011;5374;42.742;23.266;2023-03-14T00:56:12;34.33;;;19.77;;
10651;SDS011;5374;42.742;23.266;2023-03-14T00:59:01;41.33;;;24.67;;
10651;SDS011;5374;42.742;23.266;2023-03-14T01:01:48;46.87;;;25.13;;
10651;SDS011;5374;42.742;23.266;2023-03-14T01:04:36;45.97;;;25.13;;
10651;SDS011;5374;42.742;23.266;2023-03-14T01:07:24;32.20;;;21.43;;
10651;SDS011;5374;42.742;23.266;2023-03-14T01:10:13;26.40;;;18.77;;
10651;SDS011;5374;42.742;23.266;2023-03-14T01:13:01;27.27;;;17.73;;
10651;SDS011;5374;42.742;23.266;2023-03-14T01:15:48;26.23;;;17.67;;
10651;SDS011;5374;42.742;23.266;2023-03-14T01:18:35;23.97;;;17.20;;
10651;SDS011;5374;42.742;23.266;2023-03-14T01:21:27;28.73;;;16.83;;
10651;SDS011;5374;42.742;23.266;2023-03-14T01:24:17;26.30;;;16.77;;
10651;SDS011;5374;42.742;23.266;2023-03-14T01:27:07;27.33;;;16.63;;
10651;SDS011;5374;42.742;23.266;2023-03-14T01:29:54;27.57;;;16.20;;
10651;SDS011;5374;42.742;23.266;2023-03-14T01:32:41;24.53;;;16.00;;
10651;SDS011;5374;42.742;23.266;2023-03-14T01:35:28;22.50;;;15.80;;
10651;SDS011;5374;42.742;23.266;2023-03-14T01:38:15;30.20;;;18.43;;
10651;SDS011;5374;42.742;23.266;2023-03-14T01:41:03;34.20;;;19.80;;
10651;SDS011;5374;42.742;23.266;2023-03-14T01:43:52;33.70;;;19.60;;
10651;SDS011;5374;42.742;23.266;2023-03-14T01:46:39;38.60;;;21.50;;
10651;SDS011;5374;42.742;23.266;2023-03-14T01:49:27;33.60;;;20.13;;
10651;SDS011;5374;42.742;23.266;2023-03-14T01:52:18;32.07;;;19.33;;
10651;SDS011;5374;42.742;23.266;2023-03-14T01:55:10;25.27;;;16.63;;
10651;SDS011;5374;42.742;23.266;2023-03-14T01:58:00;27.23;;;17.10;;
10651;SDS011;5374;42.742;23.266;2023-03-14T02:00:51;23.87;;;15.67;;
10651;SDS011;5374;42.742;23.266;2023-03-14T02:03:39;31.70;;;16.40;;
10651;SDS011;5374;42.742;23.266;2023-03-14T02:06:35;22.20;;;15.17;;
10651;SDS011;5374;42.742;23.266;2023-03-14T02:09:29;22.60;;;15.27;;
10651;SDS011;5374;42.742;23.266;2023-03-14T02:12:17;22.87;;;15.43;;
10651;SDS011;5374;42.742;23.266;2023-03-14T02:15:06;23.43;;;15.63;;
10651;SDS011;5374;42.742;23.266;2023-03-14T02:17:55;24.30;;;15.83;;
10651;SDS011;5374;42.742;23.266;2023-03-14T02:20:45;24.60;;;16.27;;
10651;SDS011;5374;42.742;23.266;2023-03-14T02:23:40;28.93;;;17.20;;
10651;SDS011;5374;42.742;23.266;2023-03-14T02:26:35;31.60;;;19.20;;
10651;SDS011;5374;42.742;23.266;2023-03-14T02:29:27;32.17;;;18.93;;
10651;SDS011;5374;42.742;23.266;2023-03-14T02:32:16;27.07;;;17.43;;
10651;SDS011;5374;42.742;23.266;2023-03-14T02:35:05;28.47;;;17.87;;
10651;SDS011;5374;42.742;23.266;2023-03-14T02:37:57;27.10;;;16.50;;
10651;SDS011;5374;42.742;23.266;2023-03-14T02:40:49;24.43;;;16.30;;
10651;SDS011;5374;42.742;23.266;2023-03-14T02:43:37;29.53;;;17.77;;
10651;SDS011;5374;42.742;23.266;2023-03-14T02:46:25;45.87;;;25.47;;
10651;SDS011;5374;42.742;23.266;2023-03-14T02:49:14;38.93;;;22.00;;
10651;SDS011;5374;42.742;23.266;2023-03-14T02:52:01;41.43;;;21.20;;
10651;SDS011;5374;42.742;23.266;2023-03-14T02:54:48;34.87;;;19.43;;
10651;SDS011;5374;42.742;23.266;2023-03-14T02:57:35;33.53;;;19.20;;
10651;SDS011;5374;42.742;23.266;2023-03-14T03:00:23;61.50;;;34.37;;
10651;SDS011;5374;42.742;23.266;2023-03-14T03:03:11;43.80;;;26.37;;
10651;SDS011;5374;42.742;23.266;2023-03-14T03:05:59;31.20;;;17.27;;
10651;SDS011;5374;42.742;23.266;2023-03-14T03:08:46;23.53;;;16.57;;
10651;SDS011;5374;42.742;23.266;2023-03-14T03:11:33;28.93;;;17.90;;
10651;SDS011;5374;42.742;23.266;2023-03-14T03:14:20;28.30;;;16.77;;
10651;SDS011;5374;42.742;23.266;2023-03-14T03:17:07;21.97;;;15.50;;
10651;SDS011;5374;42.742;23.266;2023-03-14T03:19:56;21.60;;;15.15;;
10651;SDS011;5374;42.742;23.266;2023-03-14T03:22:43;23.77;;;15.23;;
10651;SDS011;5374;42.742;23.266;2023-03-14T03:25:31;23.70;;;15.50;;
10651;SDS011;5374;42.742;23.266;2023-03-14T03:28:18;20.47;;;14.87;;
10651;SDS011;5374;42.742;23.266;2023-03-14T03:31:08;20.90;;;14.10;;
10651;SDS011;5374;42.742;23.266;2023-03-14T03:33:57;24.47;;;14.90;;
10651;SDS011;5374;42.742;23.266;2023-03-14T03:36:45;22.53;;;14.23;;
10651;SDS011;5374;42.742;23.266;2023-03-14T03:39:32;21.80;;;14.37;;
10651;SDS011;5374;42.742;23.266;2023-03-14T03:42:22;19.63;;;13.37;;
10651;SDS011;5374;42.742;23.266;2023-03-14T03:45:09;22.20;;;14.17;;
10651;SDS011;5374;42.742;23.266;2023-03-14T03:47:57;22.97;;;15.20;;
10651;SDS011;5374;42.742;23.266;2023-03-14T03:50:44;26.63;;;15.70;;
10651;SDS011;5374;42.742;23.266;2023-03-14T03:53:33;29.73;;;17.60;;
10651;SDS011;5374;42.742;23.266;2023-03-14T03:56:20;27.13;;;18.03;;
10651;SDS011;5374;42.742;23.266;2023-03-14T03:59:07;25.37;;;17.13;;
10651;SDS011;5374;42.742;23.266;2023-03-14T04:01:54;31.30;;;17.07;;
10651;SDS011;5374;42.742;23.266;2023-03-14T04:04:41;27.77;;;15.53;;
10651;SDS011;5374;42.742;23.266;2023-03-14T04:07:30;24.97;;;15.13;;
10651;SDS011;5374;42.742;23.266;2023-03-14T04:10:19;23.37;;;14.97;;
10651;SDS011;5374;42.742;23.266;2023-03-14T04:13:06;23.20;;;15.67;;
10651;SDS011;5374;42.742;23.266;2023-03-14T04:15:54;23.23;;;15.07;;
10651;SDS011;5374;42.742;23.266;2023-03-14T04:18:42;21.77;;;14.97;;
10651;SDS011;5374;42.742;23.266;2023-03-14T04:21:29;22.27;;;14.93;;
10651;SDS011;5374;42.742;23.266;2023-03-14T04:34:31;26.30;;;15.10;;
10651;SDS011;5374;42.742;23.266;2023-03-14T04:38:00;24.67;;;15.43;;
10651;SDS011;5374;42.742;23.266;2023-03-14T04:40:48;27.27;;;16.17;;
10651;SDS011;5374;42.742;23.266;2023-03-14T04:43:35;28.67;;;16.03;;
10651;SDS011;5374;42.742;23.266;2023-03-14T04:46:24;29.10;;;17.37;;
10651;SDS011;5374;42.742;23.266;2023-03-14T04:49:11;28.90;;;16.90;;
10651;SDS011;5374;42.742;23.266;2023-03-14T04:51:58;32.20;;;17.57;;
10651;SDS011;5374;42.742;23.266;2023-03-14T04:54:45;31.50;;;18.70;;
10651;SDS011;5374;42.742;23.266;2023-03-14T04:57:32;32.67;;;18.10;;
10651;SDS011;5374;42.742;23.266;2023-03-14T05:00:19;29.97;;;18.27;;
10651;SDS011;5374;42.742;23.266;2023-03-14T05:03:08;30.07;;;18.47;;
10651;SDS011;5374;42.742;23.266;2023-03-14T05:05:55;34.57;;;18.07;;
10651;SDS011;5374;42.742;23.266;2023-03-14T05:08:44;29.17;;;17.47;;
10651;SDS011;5374;42.742;23.266;2023-03-14T05:11:31;36.23;;;17.60;;
10651;SDS011;5374;42.742;23.266;2023-03-14T05:14:19;29.73;;;17.20;;
10651;SDS011;5374;42.742;23.266;2023-03-14T05:17:06;28.63;;;17.93;;
10651;SDS011;5374;42.742;23.266;2023-03-14T05:19:55;31.27;;;19.87;;
10651;SDS011;5374;42.742;23.266;2023-03-14T05:22:42;36.43;;;21.10;;
10651;SDS011;5374;42.742;23.266;2023-03-14T05:25:29;39.43;;;23.87;;
10651;SDS011;5374;42.742;23.266;2023-03-14T05:28:16;54.20;;;27.70;;
10651;SDS011;5374;42.742;23.266;2023-03-14T05:31:06;47.73;;;27.17;;
10651;SDS011;5374;42.742;23.266;2023-03-14T05:33:53;44.87;;;25.07;;
10651;SDS011;5374;42.742;23.266;2023-03-14T05:36:42;30.37;;;21.17;;
10651;SDS011;5374;42.742;23.266;2023-03-14T05:39:30;32.13;;;19.27;;
10651;SDS011;5374;42.742;23.266;2023-03-14T05:42:17;20.30;;;14.33;;
10651;SDS011;5374;42.742;23.266;2023-03-14T05:45:04;19.83;;;13.37;;
10651;SDS011;5374;42.742;23.266;2023-03-14T05:47:52;20.27;;;12.37;;
10651;SDS011;5374;42.742;23.266;2023-03-14T05:50:40;42.77;;;23.57;;
10651;SDS011;5374;42.742;23.266;2023-03-14T05:53:28;67.20;;;37.47;;
10651;SDS011;5374;42.742;23.266;2023-03-14T05:56:15;53.77;;;28.13;;
10651;SDS011;5374;42.742;23.266;2023-03-14T05:59:02;54.87;;;32.40;;
10651;SDS011;5374;42.742;23.266;2023-03-14T06:01:50;98.67;;;57.43;;
10651;SDS011;5374;42.742;23.266;2023-03-14T06:04:37;65.40;;;40.43;;
10651;SDS011;5374;42.742;23.266;2023-03-14T06:07:25;33.70;;;25.20;;
10651;SDS011;5374;42.742;23.266;2023-03-14T06:10:13;32.30;;;24.50;;
10651;SDS011;5374;42.742;23.266;2023-03-14T06:13:01;45.80;;;32.03;;
10651;SDS011;5374;42.742;23.266;2023-03-14T06:15:48;60.03;;;41.63;;
10651;SDS011;5374;42.742;23.266;2023-03-14T06:18:35;29.53;;;19.23;;
10651;SDS011;5374;42.742;23.266;2023-03-14T06:21:22;29.90;;;16.60;;
10651;SDS011;5374;42.742;23.266;2023-03-14T06:24:09;21.00;;;13.93;;
10651;SDS011;5374;42.742;23.266;2023-03-14T06:27:01;34.00;;;15.13;;
10651;SDS011;5374;42.742;23.266;2023-03-14T06:29:51;29.63;;;16.97;;
10651;SDS011;5374;42.742;23.266;2023-03-14T06:32:39;24.93;;;16.57;;
10651;SDS011;5374;42.742;23.266;2023-03-14T06:35:26;30.10;;;21.33;;
10651;SDS011;5374;42.742;23.266;2023-03-14T06:38:14;40.40;;;24.07;;
10651;SDS011;5374;42.742;23.266;2023-03-14T06:41:04;35.57;;;23.33;;
10651;SDS011;5374;42.742;23.266;2023-03-14T06:43:53;37.83;;;20.63;;
10651;SDS011;5374;42.742;23.266;2023-03-14T06:46:41;30.30;;;20.73;;
10651;SDS011;5374;42.742;23.266;2023-03-14T06:49:28;29.90;;;20.47;;
10651;SDS011;5374;42.742;23.266;2023-03-14T06:52:15;26.97;;;19.67;;
10651;SDS011;5374;42.742;23.266;2023-03-14T06:55:02;30.53;;;19.97;;
10651;SDS011;5374;42.742;23.266;2023-03-14T06:57:50;25.13;;;18.77;;
10651;SDS011;5374;42.742;23.266;2023-03-14T07:00:38;22.43;;;15.67;;
10651;SDS011;5374;42.742;23.266;2023-03-14T07:03:26;17.37;;;13.23;;
10651;SDS011;5374;42.742;23.266;2023-03-14T07:06:13;14.83;;;10.83;;
10651;SDS011;5374;42.742;23.266;2023-03-14T07:09:00;11.00;;;9.93;;
10651;SDS011;5374;42.742;23.266;2023-03-14T07:11:48;12.30;;;10.03;;
10651;SDS011;5374;42.742;23.266;2023-03-14T07:14:35;19.13;;;11.27;;
10651;SDS011;5374;42.742;23.266;2023-03-14T07:17:23;17.00;;;10.27;;
10651;SDS011;5374;42.742;23.266;2023-03-14T07:20:11;14.97;;;11.03;;
10651;SDS011;5374;42.742;23.266;2023-03-14T07:22:59;15.20;;;10.30;;
10651;SDS011;5374;42.742;23.266;2023-03-14T07:25:48;18.77;;;12.20;;
10651;SDS011;5374;42.742;23.266;2023-03-14T07:28:36;16.37;;;12.60;;
10651;SDS011;5374;42.742;23.266;2023-03-14T07:31:23;18.53;;;13.00;;
10651;SDS011;5374;42.742;23.266;2023-03-14T07:34:12;19.83;;;12.67;;
10651;SDS011;5374;42.742;23.266;2023-03-14T07:36:59;17.33;;;12.93;;
10651;SDS011;5374;42.742;23.266;2023-03-14T07:39:46;21.77;;;14.23;;
10651;SDS011;5374;42.742;23.266;2023-03-14T07:42:33;21.37;;;14.00;;
10651;SDS011;5374;42.742;23.266;2023-03-14T07:45:20;19.53;;;13.83;;
10651;SDS011;5374;42.742;23.266;2023-03-14T07:48:07;18.03;;;13.00;;
10651;SDS011;5374;42.742;23.266;2023-03-14T07:50:56;15.57;;;13.20;;
10651;SDS011;5374;42.742;23.266;2023-03-14T07:53:44;15.10;;;12.67;;
10651;SDS011;5374;42.742;23.266;2023-03-14T07:56:31;29.67;;;15.40;;
10651;SDS011;5374;42.742;23.266;2023-03-14T07:59:18;19.87;;;13.63;;
10651;SDS011;5374;42.742;23.266;2023-03-14T08:02:07;23.20;;;13.80;;
10651;SDS011;5374;42.742;23.266;2023-03-14T08:04:57;18.73;;;13.97;;
10651;SDS011;5374;42.742;23.266;2023-03-14T08:07:45;20.27;;;13.40;;
10651;SDS011;5374;42.742;23.266;2023-03-14T08:10:33;22.30;;;14.17;;
10651;SDS011;5374;42.742;23.266;2023-03-14T08:13:20;17.33;;;13.70;;
10651;SDS011;5374;42.742;23.266;2023-03-14T08:16:09;19.73;;;13.63;;
10651;SDS011;5374;42.742;23.266;2023-03-14T08:18:56;20.87;;;14.97;;
10651;SDS011;5374;42.742;23.266;2023-03-14T08:21:43;21.50;;;13.87;;
10651;SDS011;5374;42.742;23.266;2023-03-14T08:24:32;19.83;;;14.03;;
10651;SDS011;5374;42.742;23.266;2023-03-14T08:27:19;21.07;;;13.40;;
10651;SDS011;5374;42.742;23.266;2023-03-14T08:30:07;20.53;;;13.90;;
10651;SDS011;5374;42.742;23.266;2023-03-14T08:32:56;17.20;;;13.20;;
10651;SDS011;5374;42.742;23.266;2023-03-14T08:35:44;18.50;;;15.10;;
10651;SDS011;5374;42.742;23.266;2023-03-14T08:38:31;22.00;;;15.30;;
10651;SDS011;5374;42.742;23.266;2023-03-14T08:41:20;19.90;;;14.57;;
10651;SDS011;5374;42.742;23.266;2023-03-14T08:44:07;22.20;;;15.10;;
10651;SDS011;5374;42.742;23.266;2023-03-14T08:46:54;25.47;;;14.07;;
10651;SDS011;5374;42.742;23.266;2023-03-14T08:49:41;17.13;;;14.00;;
10651;SDS011;5374;42.742;23.266;2023-03-14T08:52:29;14.97;;;11.97;;
10651;SDS011;5374;42.742;23.266;2023-03-14T08:55:16;21.93;;;13.00;;
10651;SDS011;5374;42.742;23.266;2023-03-14T08:58:05;20.33;;;11.57;;
10651;SDS011;5374;42.742;23.266;2023-03-14T09:00:52;13.73;;;9.80;;
10651;SDS011;5374;42.742;23.266;2023-03-14T09:03:39;14.40;;;7.83;;
10651;SDS011;5374;42.742;23.266;2023-03-14T09:06:26;10.37;;;6.47;;
10651;SDS011;5374;42.742;23.266;2023-03-14T09:09:14;7.00;;;5.93;;
10651;SDS011;5374;42.742;23.266;2023-03-14T09:12:01;7.57;;;6.30;;
10651;SDS011;5374;42.742;23.266;2023-03-14T09:14:50;9.50;;;6.90;;
10651;SDS011;5374;42.742;23.266;2023-03-14T09:17:37;13.27;;;6.80;;
10651;SDS011;5374;42.742;23.266;2023-03-14T09:20:24;8.17;;;6.70;;
10651;SDS011;5374;42.742;23.266;2023-03-14T09:23:11;13.80;;;7.10;;
10651;SDS011;5374;42.742;23.266;2023-03-14T09:25:59;10.87;;;7.17;;
10651;SDS011;5374;42.742;23.266;2023-03-14T09:28:47;8.33;;;6.73;;
10651;SDS011;5374;42.742;23.266;2023-03-14T09:31:35;10.67;;;6.93;;
10651;SDS011;5374;42.742;23.266;2023-03-14T09:34:22;9.10;;;6.87;;
10651;SDS011;5374;42.742;23.266;2023-03-14T09:37:09;10.23;;;6.93;;
10651;SDS011;5374;42.742;23.266;2023-03-14T09:39:57;12.57;;;6.80;;
10651;SDS011;5374;42.742;23.266;2023-03-14T09:42:44;10.10;;;6.60;;
10651;SDS011;5374;42.742;23.266;2023-03-14T09:45:31;9.50;;;6.70;;
10651;SDS011;5374;42.742;23.266;2023-03-14T09:48:24;12.13;;;7.40;;
10651;SDS011;5374;42.742;23.266;2023-03-14T09:51:15;12.37;;;6.97;;
10651;SDS011;5374;42.742;23.266;2023-03-14T09:54:04;8.00;;;5.87;;
10651;SDS011;5374;42.742;23.266;2023-03-14T09:56:52;10.87;;;6.13;;
10651;SDS011;5374;42.742;23.266;2023-03-14T09:59:40;10.93;;;6.37;;
10651;SDS011;5374;42.742;23.266;2023-03-14T10:02:32;9.17;;;6.00;;
10651;SDS011;5374;42.742;23.266;2023-03-14T10:05:23;7.40;;;5.10;;
10651;SDS011;5374;42.742;23.266;2023-03-14T10:08:13;6.70;;;4.57;;
10651;SDS011;5374;42.742;23.266;2023-03-14T10:11:01;9.70;;;4.87;;
10651;SDS011;5374;42.742;23.266;2023-03-14T10:13:50;9.00;;;5.03;;
10651;SDS011;5374;42.742;23.266;2023-03-14T10:16:49;7.13;;;4.90;;
10651;SDS011;5374;42.742;23.266;2023-03-14T10:19:37;6.53;;;4.80;;
10651;SDS011;5374;42.742;23.266;2023-03-14T10:22:38;7.80;;;5.17;;
10651;SDS011;5374;42.742;23.266;2023-03-14T10:25:26;9.30;;;5.17;;
10651;SDS011;5374;42.742;23.266;2023-03-14T10:28:23;9.20;;;5.00;;
10651;SDS011;5374;42.742;23.266;2023-03-14T10:31:12;7.10;;;5.27;;
10651;SDS011;5374;42.742;23.266;2023-03-14T10:34:00;10.43;;;5.30;;
10651;SDS011;5374;42.742;23.266;2023-03-14T10:36:52;10.60;;;5.80;;
10651;SDS011;5374;42.742;23.266;2023-03-14T10:39:44;6.03;;;4.63;;
10651;SDS011;5374;42.742;23.266;2023-03-14T10:42:34;8.53;;;5.10;;
10651;SDS011;5374;42.742;23.266;2023-03-14T10:45:34;9.57;;;6.33;;
10651;SDS011;5374;42.742;23.266;2023-03-14T10:48:24;8.57;;;5.30;;
10651;SDS011;5374;42.742;23.266;2023-03-14T10:51:18;7.57;;;4.73;;
10651;SDS011;5374;42.742;23.266;2023-03-14T10:54:12;7.00;;;4.50;;
10651;SDS011;5374;42.742;23.266;2023-03-14T10:57:03;7.77;;;5.40;;
10651;SDS011;5374;42.742;23.266;2023-03-14T10:59:51;7.73;;;5.00;;
10651;SDS011;5374;42.742;23.266;2023-03-14T11:02:43;7.30;;;5.97;;
10651;SDS011;5374;42.742;23.266;2023-03-14T11:05:41;9.23;;;6.23;;
10651;SDS011;5374;42.742;23.266;2023-03-14T11:08:33;7.53;;;5.57;;
10651;SDS011;5374;42.742;23.266;2023-03-14T11:11:29;11.37;;;6.70;;
10651;SDS011;5374;42.742;23.266;2023-03-14T11:14:20;7.33;;;5.83;;
10651;SDS011;5374;42.742;23.266;2023-03-14T11:17:15;11.50;;;6.17;;
10651;SDS011;5374;42.742;23.266;2023-03-14T11:20:14;7.83;;;5.83;;
10651;SDS011;5374;42.742;23.266;2023-03-14T11:23:13;8.77;;;6.00;;
10651;SDS011;5374;42.742;23.266;2023-03-14T11:26:07;15.30;;;9.90;;
10651;SDS011;5374;42.742;23.266;2023-03-14T11:29:08;16.43;;;5.10;;
10651;SDS011;5374;42.742;23.266;2023-03-14T11:32:09;8.23;;;6.03;;
10651;SDS011;5374;42.742;23.266;2023-03-14T11:35:01;24.33;;;19.47;;
10651;SDS011;5374;42.742;23.266;2023-03-14T11:37:54;11.63;;;9.50;;
10651;SDS011;5374;42.742;23.266;2023-03-14T11:40:49;19.50;;;15.10;;
10651;SDS011;5374;42.742;23.266;2023-03-14T11:43:39;12.73;;;7.33;;
10651;SDS011;5374;42.742;23.266;2023-03-14T11:46:28;31.10;;;22.57;;
10651;SDS011;5374;42.742;23.266;2023-03-14T11:49:26;24.63;;;16.73;;
10651;SDS011;5374;42.742;23.266;2023-03-14T11:52:20;11.70;;;8.20;;
10651;SDS011;5374;42.742;23.266;2023-03-14T11:55:12;11.13;;;5.70;;
10651;SDS011;5374;42.742;23.266;2023-03-14T11:58:09;14.43;;;11.17;;
10651;SDS011;5374;42.742;23.266;2023-03-14T12:01:08;10.10;;;7.87;;
10651;SDS011;5374;42.742;23.266;2023-03-14T12:04:01;8.00;;;5.53;;
10651;SDS011;5374;42.742;23.266;2023-03-14T12:06:54;14.13;;;8.20;;
10651;SDS011;5374;42.742;23.266;2023-03-14T12:09:43;8.63;;;4.53;;
10651;SDS011;5374;42.742;23.266;2023-03-14T12:12:32;8.23;;;6.40;;
10651;SDS011;5374;42.742;23.266;2023-03-14T12:15:21;6.13;;;4.67;;
10651;SDS011;5374;42.742;23.266;2023-03-14T12:18:16;6.03;;;4.77;;
10651;SDS011;5374;42.742;23.266;2023-03-14T12:21:07;7.03;;;4.20;;
10651;SDS011;5374;42.742;23.266;2023-03-14T12:23:57;9.17;;;4.30;;
10651;SDS011;5374;42.742;23.266;2023-03-14T12:26:50;5.00;;;3.87;;
10651;SDS011;5374;42.742;23.266;2023-03-14T12:29:58;6.77;;;4.00;;
10651;SDS011;5374;42.742;23.266;2023-03-14T12:39:22;6.00;;;3.47;;
10651;SDS011;5374;42.742;23.266;2023-03-14T12:42:22;4.20;;;3.43;;
10651;SDS011;5374;42.742;23.266;2023-03-14T12:45:25;6.63;;;3.90;;
10651;SDS011;5374;42.742;23.266;2023-03-14T12:48:15;5.33;;;3.83;;
10651;SDS011;5374;42.742;23.266;2023-03-14T12:51:12;12.10;;;9.50;;
10651;SDS011;5374;42.742;23.266;2023-03-14T12:57:19;14.50;;;12.97;;
10651;SDS011;5374;42.742;23.266;2023-03-14T13:00:17;7.67;;;4.17;;
10651;SDS011;5374;42.742;23.266;2023-03-14T13:03:15;6.17;;;5.37;;
10651;SDS011;5374;42.742;23.266;2023-03-14T13:06:08;8.10;;;6.90;;
10651;SDS011;5374;42.742;23.266;2023-03-14T13:08:56;10.37;;;2.80;;
10651;SDS011;5374;42.742;23.266;2023-03-14T13:11:45;3.90;;;2.90;;
10651;SDS011;5374;42.742;23.266;2023-03-14T13:14:33;3.53;;;2.33;;
10651;SDS011;5374;42.742;23.266;2023-03-14T13:17:23;3.33;;;2.67;;
10651;SDS011;5374;42.742;23.266;2023-03-14T13:20:14;4.47;;;2.40;;
10651;SDS011;5374;42.742;23.266;2023-03-14T13:23:05;6.93;;;3.03;;
10651;SDS011;5374;42.742;23.266;2023-03-14T13:26:06;5.10;;;2.83;;
10651;SDS011;5374;42.742;23.266;2023-03-14T13:28:59;8.10;;;2.80;;
10651;SDS011;5374;42.742;23.266;2023-03-14T13:31:47;6.93;;;2.70;;
10651;SDS011;5374;42.742;23.266;2023-03-14T13:34:35;7.00;;;2.67;;
10651;SDS011;5374;42.742;23.266;2023-03-14T13:37:23;5.57;;;2.70;;
10651;SDS011;5374;42.742;23.266;2023-03-14T13:40:18;4.63;;;2.80;;
10651;SDS011;5374;42.742;23.266;2023-03-14T13:43:11;4.63;;;3.23;;
10651;SDS011;5374;42.742;23.266;2023-03-14T13:46:04;4.40;;;3.23;;
10651;SDS011;5374;42.742;23.266;2023-03-14T13:48:53;4.93;;;2.30;;
10651;SDS011;5374;42.742;23.266;2023-03-14T13:51:43;4.37;;;2.33;;
10651;SDS011;5374;42.742;23.266;2023-03-14T13:54:30;6.67;;;2.30;;
10651;SDS011;5374;42.742;23.266;2023-03-14T13:57:18;2.93;;;2.20;;
10651;SDS011;5374;42.742;23.266;2023-03-14T14:00:06;4.13;;;2.40;;
10651;SDS011;5374;42.742;23.266;2023-03-14T14:03:08;2.77;;;2.20;;
10651;SDS011;5374;42.742;23.266;2023-03-14T14:05:58;7.97;;;3.30;;
10651;SDS011;5374;42.742;23.266;2023-03-14T14:08:45;3.97;;;2.57;;
10651;SDS011;5374;42.742;23.266;2023-03-14T14:11:37;5.87;;;2.37;;
10651;SDS011;5374;42.742;23.266;2023-03-14T14:14:30;13.10;;;4.20;;
10651;SDS011;5374;42.742;23.266;2023-03-14T14:17:21;3.03;;;2.23;;
10651;SDS011;5374;42.742;23.266;2023-03-14T14:20:13;7.07;;;2.77;;
10651;SDS011;5374;42.742;23.266;2023-03-14T14:23:09;4.23;;;2.43;;
10651;SDS011;5374;42.742;23.266;2023-03-14T14:25:58;6.73;;;2.70;;
10651;SDS011;5374;42.742;23.266;2023-03-14T14:28:46;9.17;;;2.80;;
10651;SDS011;5374;42.742;23.266;2023-03-14T14:31:34;3.47;;;2.00;;
10651;SDS011;5374;42.742;23.266;2023-03-14T14:34:22;10.00;;;2.40;;
10651;SDS011;5374;42.742;23.266;2023-03-14T14:40:18;7.73;;;3.20;;
10651;SDS011;5374;42.742;23.266;2023-03-14T14:43:11;5.13;;;3.07;;
10651;SDS011;5374;42.742;23.266;2023-03-14T14:46:05;4.30;;;3.00;;
10651;SDS011;5374;42.742;23.266;2023-03-14T14:48:55;7.83;;;6.43;;
10651;SDS011;5374;42.742;23.266;2023-03-14T14:51:45;6.27;;;2.70;;
10651;SDS011;5374;42.742;23.266;2023-03-14T14:54:37;5.93;;;3.20;;
10651;SDS011;5374;42.742;23.266;2023-03-14T14:57:25;4.23;;;2.70;;
10651;SDS011;5374;42.742;23.266;2023-03-14T15:00:18;7.80;;;2.33;;
10651;SDS011;5374;42.742;23.266;2023-03-14T15:03:10;7.70;;;2.20;;
10651;SDS011;5374;42.742;23.266;2023-03-14T15:06:02;2.97;;;2.10;;
10651;SDS011;5374;42.742;23.266;2023-03-14T15:08:49;6.80;;;3.30;;
10651;SDS011;5374;42.742;23.266;2023-03-14T15:11:38;7.00;;;4.33;;
10651;SDS011;5374;42.742;23.266;2023-03-14T15:14:25;6.00;;;4.10;;
10651;SDS011;5374;42.742;23.266;2023-03-14T15:17:12;3.43;;;2.20;;
10651;SDS011;5374;42.742;23.266;2023-03-14T15:20:00;5.17;;;2.40;;
10651;SDS011;5374;42.742;23.266;2023-03-14T15:22:49;3.87;;;3.47;;
10651;SDS011;5374;42.742;23.266;2023-03-14T15:25:36;7.17;;;3.33;;
10651;SDS011;5374;42.742;23.266;2023-03-14T15:28:26;6.07;;;4.07;;
10651;SDS011;5374;42.742;23.266;2023-03-14T15:31:15;4.00;;;2.37;;
10651;SDS011;5374;42.742;23.266;2023-03-14T15:34:04;3.37;;;2.30;;
10651;SDS011;5374;42.742;23.266;2023-03-14T15:36:51;6.73;;;3.03;;
10651;SDS011;5374;42.742;23.266;2023-03-14T15:39:38;6.33;;;2.83;;
10651;SDS011;5374;42.742;23.266;2023-03-14T15:42:25;6.97;;;3.63;;
10651;SDS011;5374;42.742;23.266;2023-03-14T15:45:14;8.13;;;3.90;;
10651;SDS011;5374;42.742;23.266;2023-03-14T15:48:01;8.87;;;3.47;;
10651;SDS011;5374;42.742;23.266;2023-03-14T15:50:48;11.63;;;7.63;;
10651;SDS011;5374;42.742;23.266;2023-03-14T15:53:36;8.30;;;7.40;;
10651;SDS011;5374;42.742;23.266;2023-03-14T15:56:23;9.23;;;3.97;;
10651;SDS011;5374;42.742;23.266;2023-03-14T15:59:13;9.83;;;4.00;;
10651;SDS011;5374;42.742;23.266;2023-03-14T16:02:01;7.83;;;4.30;;
10651;SDS011;5374;42.742;23.266;2023-03-14T16:04:48;9.80;;;4.80;;
10651;SDS011;5374;42.742;23.266;2023-03-14T16:07:36;6.90;;;4.50;;
10651;SDS011;5374;42.742;23.266;2023-03-14T16:10:23;8.23;;;3.87;;
10651;SDS011;5374;42.742;23.266;2023-03-14T16:13:10;24.97;;;16.63;;
10651;SDS011;5374;42.742;23.266;2023-03-14T16:15:58;12.83;;;6.97;;
10651;SDS011;5374;42.742;23.266;2023-03-14T16:18:48;10.93;;;4.10;;
10651;SDS011;5374;42.742;23.266;2023-03-14T16:21:35;10.53;;;5.33;;
10651;SDS011;5374;42.742;23.266;2023-03-14T16:24:23;9.80;;;5.63;;
10651;SDS011;5374;42.742;23.266;2023-03-14T16:27:10;26.93;;;19.13;;
10651;SDS011;5374;42.742;23.266;2023-03-14T16:29:57;8.07;;;5.37;;
10651;SDS011;5374;42.742;23.266;2023-03-14T16:32:45;7.97;;;4.87;;
10651;SDS011;5374;42.742;23.266;2023-03-14T16:35:34;8.30;;;4.43;;
10651;SDS011;5374;42.742;23.266;2023-03-14T16:38:22;6.77;;;4.90;;
10651;SDS011;5374;42.742;23.266;2023-03-14T16:41:10;9.27;;;5.53;;
10651;SDS011;5374;42.742;23.266;2023-03-14T16:43:59;9.77;;;4.83;;
10651;SDS011;5374;42.742;23.266;2023-03-14T16:46:47;8.63;;;4.53;;
10651;SDS011;5374;42.742;23.266;2023-03-14T16:49:34;12.07;;;5.47;;
10651;SDS011;5374;42.742;23.266;2023-03-14T16:52:23;13.00;;;5.30;;
10651;SDS011;5374;42.742;23.266;2023-03-14T16:55:11;10.23;;;6.10;;
10651;SDS011;5374;42.742;23.266;2023-03-14T16:57:58;10.90;;;4.73;;
10651;SDS011;5374;42.742;23.266;2023-03-14T17:00:45;8.17;;;4.93;;
10651;SDS011;5374;42.742;23.266;2023-03-14T17:03:33;8.60;;;4.90;;